»·PEaware :: N27JP KAVX-KSAN

N27JP :: KAVX-KSAN

FLIGHT INFORMATION

Flight Status: Arrived
Operator: Privately registered:
United States
More flights under this callsign
Pilot: Weston J. (31543)
Aircraft: CESSNA 172 SKYHAWK
(C172)
More flights by this aircraft type
Origin: KAVX Catalina
United States
Destination: KSAN San Diego Intl-Lindbergh
United States
More flights between these airports :: More routes between these airports
Route: SXC V208 OCN V23 MZB
File this flight plan on PilotEdge
Remarks: I8 Practice
Altitude:
(Current/Filed)
5,000ft
Speed:
(Current/Filed)
110kts
Departed: 30-Dec-20 01:43 PM
Arrived: 30-Dec-20 02:51 PM
Distance/Time
Traveled:
74nm/1:08
Distance/Time
To Go:
Arrived

Flight Plot

Page will automatically refresh every two minutes.


Map Options




Map Legend


Flown Route
Filed Route
Departure Airport
Arrival Airport
Navaid (VOR, NDB)
Fix

Horizontal Profiles

Position Reports

Time Latitude Longitude Heading Altitude Ground
Speed
30-Dec-20 13:30 33.403739 -118.415526 144 1591ft 0kts
30-Dec-20 13:31 33.403739 -118.415526 144 1591ft 0kts
30-Dec-20 13:32 33.403739 -118.415526 144 1591ft 0kts
30-Dec-20 13:33 33.403739 -118.415526 144 1591ft 0kts
30-Dec-20 13:34 33.403739 -118.415526 144 1591ft 0kts
30-Dec-20 13:35 33.403739 -118.415526 144 1591ft 0kts
30-Dec-20 13:36 33.403739 -118.415526 144 1591ft 0kts
30-Dec-20 13:37 33.403739 -118.415526 144 1591ft 0kts
30-Dec-20 13:38 33.403739 -118.415526 144 1591ft 0kts
30-Dec-20 13:39 33.403739 -118.415526 144 1591ft 0kts
30-Dec-20 13:40 33.403739 -118.415526 144 1591ft 0kts
30-Dec-20 13:41 33.405721 -118.413883 56 1573ft 19kts
30-Dec-20 13:42 33.404028 -118.417197 228 1625ft 78kts
30-Dec-20 13:43 33.388977 -118.437911 214 2417ft 85kts
30-Dec-20 13:44 33.364207 -118.448607 182 3138ft 97kts
30-Dec-20 13:45 33.358560 -118.423976 72 3697ft 101kts
30-Dec-20 13:46 33.365121 -118.390977 86 4256ft 102kts
30-Dec-20 13:47 33.365532 -118.357197 88 4837ft 101kts
30-Dec-20 13:48 33.361931 -118.321171 97 4959ft 116kts
30-Dec-20 13:49 33.357463 -118.286887 96 4952ft 98kts
30-Dec-20 13:50 33.353297 -118.254388 97 4953ft 101kts
30-Dec-20 13:51 33.348813 -118.220281 97 4951ft 103kts
30-Dec-20 13:52 33.344323 -118.186192 97 4950ft 103kts
30-Dec-20 13:53 33.340003 -118.153147 97 5042ft 99kts
30-Dec-20 13:54 33.335830 -118.120018 94 5040ft 101kts
30-Dec-20 13:55 33.331802 -118.086713 93 5039ft 100kts
30-Dec-20 13:56 33.327520 -118.053580 95 5038ft 101kts
30-Dec-20 13:57 33.323147 -118.020403 96 5036ft 100kts
30-Dec-20 13:58 33.318732 -117.987198 96 5035ft 100kts
30-Dec-20 13:59 33.314868 -117.954044 95 5033ft 100kts
30-Dec-20 14:00 33.312596 -117.917155 95 5034ft 121kts
30-Dec-20 14:01 33.305017 -117.877025 103 5026ft 121kts
30-Dec-20 14:02 33.298894 -117.838065 100 5027ft 118kts
30-Dec-20 14:03 33.293418 -117.798974 99 5026ft 118kts
30-Dec-20 14:04 33.288091 -117.759963 99 5026ft 118kts
30-Dec-20 14:05 33.282360 -117.720831 100 5027ft 118kts
30-Dec-20 14:06 33.276511 -117.681948 100 5027ft 118kts
30-Dec-20 14:07 33.270653 -117.643142 100 5027ft 118kts
30-Dec-20 14:08 33.264768 -117.604247 100 5027ft 118kts
30-Dec-20 14:09 33.259228 -117.565073 98 5027ft 119kts
30-Dec-20 14:10 33.254393 -117.525618 97 5027ft 119kts
30-Dec-20 14:11 33.249581 -117.486203 97 5027ft 119kts
30-Dec-20 14:12 33.244758 -117.446762 97 5027ft 119kts
30-Dec-20 14:13 33.229004 -117.415858 156 5006ft 113kts
30-Dec-20 14:14 33.199942 -117.400817 162 5000ft 112kts
30-Dec-20 14:15 33.170481 -117.387762 164 5000ft 112kts
30-Dec-20 14:16 33.140743 -117.375248 164 5000ft 113kts
30-Dec-20 14:17 33.110756 -117.362642 164 5000ft 113kts
30-Dec-20 14:18 33.080716 -117.350037 164 5001ft 114kts
30-Dec-20 14:19 33.050666 -117.337431 165 4998ft 114kts
30-Dec-20 14:20 33.020628 -117.324795 165 4997ft 114kts
30-Dec-20 14:21 32.990253 -117.312060 164 4997ft 116kts
30-Dec-20 14:23 32.959730 -117.299263 164 5014ft 116kts
30-Dec-20 14:24 32.928774 -117.286307 164 5015ft 117kts
30-Dec-20 14:25 32.898166 -117.273502 164 5014ft 116kts
30-Dec-20 14:26 32.867700 -117.260754 165 5014ft 115kts
30-Dec-20 14:27 32.840560 -117.242929 113 5024ft 120kts
30-Dec-20 14:28 32.828961 -117.205049 110 5015ft 121kts
30-Dec-20 14:29 32.817669 -117.167085 110 5016ft 121kts
30-Dec-20 14:30 32.806637 -117.129030 110 5016ft 121kts
30-Dec-20 14:31 32.795689 -117.090870 110 5017ft 121kts
30-Dec-20 14:32 32.783694 -117.053133 110 5017ft 122kts
30-Dec-20 14:33 32.770726 -117.015977 110 5017ft 121kts
30-Dec-20 14:34 32.757139 -116.979396 110 5016ft 120kts
30-Dec-20 14:35 32.743248 -116.943366 110 5015ft 119kts
30-Dec-20 14:36 32.729202 -116.907612 110 5013ft 119kts
30-Dec-20 14:37 32.715066 -116.871751 110 5012ft 119kts
30-Dec-20 14:38 32.696185 -116.840788 171 4999ft 120kts
30-Dec-20 14:38 32.678166 -116.857516 249 5010ft 102kts
30-Dec-20 14:39 32.667145 -116.888672 259 4925ft 103kts
30-Dec-20 14:41 32.669083 -116.927175 287 4358ft 102kts
30-Dec-20 14:41 32.675851 -116.954548 287 3936ft 104kts
30-Dec-20 14:42 32.683775 -116.986576 287 3445ft 99kts
30-Dec-20 14:43 32.691715 -117.019044 286 3021ft 107kts
30-Dec-20 14:44 32.700173 -117.053400 286 2550ft 107kts
30-Dec-20 14:45 32.708139 -117.085624 286 1977ft 99kts
30-Dec-20 14:46 32.715249 -117.114159 286 1415ft 76kts
30-Dec-20 14:47 32.720637 -117.136623 285 998ft 65kts
30-Dec-20 14:48 32.725920 -117.158173 286 503ft 62kts
30-Dec-20 14:49 32.730244 -117.175962 284 136ft 50kts
30-Dec-20 14:50 32.733141 -117.184274 9 20ft 4kts
30-Dec-20 14:51 32.735034 -117.183853 52 20ft 0kts

Navigation Log

Ident Type
Flight plan parsing failed, navigation log unavailable